sensor_id;sensor_type;location;lat;lon;timestamp;P1;durP1;ratioP1;P2;durP2;ratioP2
50543;SDS011;41176;44.032;20.900;2022-11-21T00:03:48;0.45;;;0.32;;
50543;SDS011;41176;44.032;20.900;2022-11-21T00:06:18;0.75;;;0.47;;
50543;SDS011;41176;44.032;20.900;2022-11-21T00:09:18;0.57;;;0.40;;
50543;SDS011;41176;44.032;20.900;2022-11-21T00:11:50;0.10;;;0.10;;
50543;SDS011;41176;44.032;20.900;2022-11-21T00:14:20;0.40;;;0.30;;
50543;SDS011;41176;44.032;20.900;2022-11-21T00:17:04;0.30;;;0.20;;
50543;SDS011;41176;44.032;20.900;2022-11-21T00:19:31;0.10;;;0.10;;
50543;SDS011;41176;44.032;20.900;2022-11-21T00:22:06;0.32;;;0.20;;
50543;SDS011;41176;44.032;20.900;2022-11-21T00:24:32;0.45;;;0.32;;
50543;SDS011;41176;44.032;20.900;2022-11-21T00:26:58;1.05;;;0.55;;
50543;SDS011;41176;44.032;20.900;2022-11-21T00:29:24;0.43;;;0.22;;
50543;SDS011;41176;44.032;20.900;2022-11-21T00:31:49;1.30;;;0.93;;
50543;SDS011;41176;44.032;20.900;2022-11-21T00:34:15;0.40;;;0.25;;
50543;SDS011;41176;44.032;20.900;2022-11-21T00:36:41;0.45;;;0.35;;
50543;SDS011;41176;44.032;20.900;2022-11-21T00:39:07;1.95;;;0.90;;
50543;SDS011;41176;44.032;20.900;2022-11-21T00:41:33;0.30;;;0.20;;
50543;SDS011;41176;44.032;20.900;2022-11-21T00:43:59;0.30;;;0.20;;
50543;SDS011;41176;44.032;20.900;2022-11-21T00:46:28;0.17;;;0.10;;
50543;SDS011;41176;44.032;20.900;2022-11-21T00:48:54;0.43;;;0.30;;
50543;SDS011;41176;44.032;20.900;2022-11-21T00:51:20;0.45;;;0.32;;
50543;SDS011;41176;44.032;20.900;2022-11-21T00:53:46;0.55;;;0.45;;
50543;SDS011;41176;44.032;20.900;2022-11-21T00:56:13;1.80;;;0.80;;
50543;SDS011;41176;44.032;20.900;2022-11-21T00:59:01;0.70;;;0.22;;
50543;SDS011;41176;44.032;20.900;2022-11-21T01:01:27;0.82;;;0.50;;
50543;SDS011;41176;44.032;20.900;2022-11-21T01:03:59;0.47;;;0.35;;
50543;SDS011;41176;44.032;20.900;2022-11-21T01:13:34;0.15;;;0.08;;
50543;SDS011;41176;44.032;20.900;2022-11-21T01:19:48;0.30;;;0.20;;
50543;SDS011;41176;44.032;20.900;2022-11-21T01:39:04;0.20;;;0.10;;
50543;SDS011;41176;44.032;20.900;2022-11-21T02:04:55;0.40;;;0.30;;
50543;SDS011;41176;44.032;20.900;2022-11-21T02:07:43;0.20;;;0.10;;
50543;SDS011;41176;44.032;20.900;2022-11-21T02:10:14;0.30;;;0.20;;
50543;SDS011;41176;44.032;20.900;2022-11-21T02:13:12;1.75;;;0.63;;
50543;SDS011;41176;44.032;20.900;2022-11-21T02:15:56;0.65;;;0.20;;
50543;SDS011;41176;44.032;20.900;2022-11-21T02:29:17;0.10;;;0.10;;
50543;SDS011;41176;44.032;20.900;2022-11-21T02:35:13;0.40;;;0.30;;
50543;SDS011;41176;44.032;20.900;2022-11-21T02:57:45;0.10;;;0.03;;
50543;SDS011;41176;44.032;20.900;2022-11-21T03:04:43;0.10;;;0.10;;
50543;SDS011;41176;44.032;20.900;2022-11-21T03:13:16;0.40;;;0.30;;
50543;SDS011;41176;44.032;20.900;2022-11-21T03:15:48;0.20;;;0.10;;
50543;SDS011;41176;44.032;20.900;2022-11-21T03:18:19;0.10;;;0.10;;
50543;SDS011;41176;44.032;20.900;2022-11-21T03:21:31;0.40;;;0.20;;
50543;SDS011;41176;44.032;20.900;2022-11-21T03:24:00;0.20;;;0.20;;
50543;SDS011;41176;44.032;20.900;2022-11-21T03:26:37;0.80;;;0.40;;
50543;SDS011;41176;44.032;20.900;2022-11-21T03:29:23;0.20;;;0.10;;
50543;SDS011;41176;44.032;20.900;2022-11-21T03:31:49;0.30;;;0.20;;
50543;SDS011;41176;44.032;20.900;2022-11-21T03:34:15;0.28;;;0.20;;
50543;SDS011;41176;44.032;20.900;2022-11-21T03:40:15;0.73;;;0.50;;
50543;SDS011;41176;44.032;20.900;2022-11-21T03:42:41;0.32;;;0.30;;
50543;SDS011;41176;44.032;20.900;2022-11-21T03:45:07;0.20;;;0.13;;
50543;SDS011;41176;44.032;20.900;2022-11-21T03:47:47;0.40;;;0.25;;
50543;SDS011;41176;44.032;20.900;2022-11-21T03:50:59;0.35;;;0.20;;
50543;SDS011;41176;44.032;20.900;2022-11-21T04:00:55;0.22;;;0.20;;
50543;SDS011;41176;44.032;20.900;2022-11-21T04:19:45;0.10;;;0.10;;
50543;SDS011;41176;44.032;20.900;2022-11-21T04:36:46;0.20;;;0.10;;
50543;SDS011;41176;44.032;20.900;2022-11-21T04:53:17;0.10;;;0.10;;
50543;SDS011;41176;44.032;20.900;2022-11-21T04:55:47;0.20;;;0.10;;
50543;SDS011;41176;44.032;20.900;2022-11-21T04:58:24;0.70;;;0.30;;
50543;SDS011;41176;44.032;20.900;2022-11-21T05:00:53;0.10;;;0.10;;
50543;SDS011;41176;44.032;20.900;2022-11-21T05:03:23;1.50;;;0.55;;
50543;SDS011;41176;44.032;20.900;2022-11-21T05:05:50;0.35;;;0.22;;
50543;SDS011;41176;44.032;20.900;2022-11-21T05:14:48;0.20;;;0.20;;
50543;SDS011;41176;44.032;20.900;2022-11-21T05:24:51;0.65;;;0.52;;
50543;SDS011;41176;44.032;20.900;2022-11-21T05:27:17;0.63;;;0.52;;
50543;SDS011;41176;44.032;20.900;2022-11-21T05:32:53;0.63;;;0.40;;
50543;SDS011;41176;44.032;20.900;2022-11-21T05:38:22;0.75;;;0.75;;
50543;SDS011;41176;44.032;20.900;2022-11-21T05:40:51;0.77;;;0.77;;
50543;SDS011;41176;44.032;20.900;2022-11-21T05:50:15;0.35;;;0.30;;
50543;SDS011;41176;44.032;20.900;2022-11-21T05:52:47;0.95;;;0.75;;
50543;SDS011;41176;44.032;20.900;2022-11-21T05:55:13;0.45;;;0.30;;
50543;SDS011;41176;44.032;20.900;2022-11-21T05:57:39;0.30;;;0.28;;
50543;SDS011;41176;44.032;20.900;2022-11-21T06:00:14;0.30;;;0.28;;
50543;SDS011;41176;44.032;20.900;2022-11-21T06:02:46;1.40;;;0.60;;
50543;SDS011;41176;44.032;20.900;2022-11-21T06:05:30;0.20;;;0.20;;
50543;SDS011;41176;44.032;20.900;2022-11-21T06:11:14;0.88;;;0.70;;
50543;SDS011;41176;44.032;20.900;2022-11-21T06:13:43;1.10;;;0.73;;
50543;SDS011;41176;44.032;20.900;2022-11-21T06:16:21;0.20;;;0.20;;
50543;SDS011;41176;44.032;20.900;2022-11-21T06:18:50;0.20;;;0.20;;
50543;SDS011;41176;44.032;20.900;2022-11-21T06:21:23;0.20;;;0.20;;
50543;SDS011;41176;44.032;20.900;2022-11-21T06:24:02;0.68;;;0.28;;
50543;SDS011;41176;44.032;20.900;2022-11-21T06:26:31;1.40;;;0.40;;
50543;SDS011;41176;44.032;20.900;2022-11-21T06:28:57;0.50;;;0.50;;
50543;SDS011;41176;44.032;20.900;2022-11-21T06:31:25;0.20;;;0.10;;
50543;SDS011;41176;44.032;20.900;2022-11-21T06:34:00;0.30;;;0.30;;
50543;SDS011;41176;44.032;20.900;2022-11-21T06:36:26;1.08;;;0.93;;
50543;SDS011;41176;44.032;20.900;2022-11-21T06:58:08;0.20;;;0.10;;
50543;SDS011;41176;44.032;20.900;2022-11-21T07:00:42;1.27;;;0.32;;
50543;SDS011;41176;44.032;20.900;2022-11-21T07:03:08;0.10;;;0.10;;
50543;SDS011;41176;44.032;20.900;2022-11-21T07:05:36;0.35;;;0.15;;
50543;SDS011;41176;44.032;20.900;2022-11-21T07:08:05;0.60;;;0.50;;
50543;SDS011;41176;44.032;20.900;2022-11-21T07:17:14;4.80;;;0.52;;
50543;SDS011;41176;44.032;20.900;2022-11-21T07:19:40;0.70;;;0.70;;
50543;SDS011;41176;44.032;20.900;2022-11-21T07:22:11;0.90;;;0.43;;
50543;SDS011;41176;44.032;20.900;2022-11-21T07:28:20;0.52;;;0.52;;
50543;SDS011;41176;44.032;20.900;2022-11-21T07:31:38;0.35;;;0.35;;
50543;SDS011;41176;44.032;20.900;2022-11-21T07:34:08;1.13;;;0.28;;
50543;SDS011;41176;44.032;20.900;2022-11-21T07:36:37;0.10;;;0.10;;
50543;SDS011;41176;44.032;20.900;2022-11-21T07:55:57;1.40;;;1.05;;
50543;SDS011;41176;44.032;20.900;2022-11-21T10:07:28;0.80;;;0.70;;
50543;SDS011;41176;44.032;20.900;2022-11-21T11:01:31;1.13;;;0.75;;
50543;SDS011;41176;44.032;20.900;2022-11-21T11:17:35;2.25;;;1.63;;
50543;SDS011;41176;44.032;20.900;2022-11-21T11:29:40;2.03;;;0.80;;
50543;SDS011;41176;44.032;20.900;2022-11-21T11:32:30;1.23;;;0.93;;
50543;SDS011;41176;44.032;20.900;2022-11-21T11:48:08;1.25;;;0.82;;
50543;SDS011;41176;44.032;20.900;2022-11-21T11:50:50;3.63;;;1.33;;
50543;SDS011;41176;44.032;20.900;2022-11-21T11:53:22;2.53;;;1.23;;
50543;SDS011;41176;44.032;20.900;2022-11-21T12:01:45;2.15;;;1.05;;
50543;SDS011;41176;44.032;20.900;2022-11-21T12:04:17;1.15;;;0.82;;
50543;SDS011;41176;44.032;20.900;2022-11-21T12:06:50;0.55;;;0.35;;
50543;SDS011;41176;44.032;20.900;2022-11-21T12:09:31;1.67;;;1.35;;
50543;SDS011;41176;44.032;20.900;2022-11-21T12:23:18;3.47;;;2.47;;
50543;SDS011;41176;44.032;20.900;2022-11-21T12:46:38;3.88;;;2.35;;
50543;SDS011;41176;44.032;20.900;2022-11-21T12:49:20;1.65;;;1.13;;
50543;SDS011;41176;44.032;20.900;2022-11-21T12:52:47;4.57;;;1.85;;
50543;SDS011;41176;44.032;20.900;2022-11-21T12:55:40;1.20;;;0.88;;
50543;SDS011;41176;44.032;20.900;2022-11-21T13:00:53;2.58;;;1.10;;
50543;SDS011;41176;44.032;20.900;2022-11-21T13:06:18;7.65;;;1.33;;
50543;SDS011;41176;44.032;20.900;2022-11-21T13:08:50;1.85;;;1.20;;
50543;SDS011;41176;44.032;20.900;2022-11-21T13:14:28;4.85;;;1.77;;
50543;SDS011;41176;44.032;20.900;2022-11-21T13:17:01;4.15;;;1.85;;
50543;SDS011;41176;44.032;20.900;2022-11-21T13:30:24;3.10;;;2.17;;
50543;SDS011;41176;44.032;20.900;2022-11-21T13:32:51;3.63;;;1.80;;
50543;SDS011;41176;44.032;20.900;2022-11-21T13:43:33;0.95;;;0.82;;
50543;SDS011;41176;44.032;20.900;2022-11-21T14:10:45;1.30;;;1.05;;
50543;SDS011;41176;44.032;20.900;2022-11-21T14:13:23;4.00;;;2.58;;
50543;SDS011;41176;44.032;20.900;2022-11-21T14:18:19;1.45;;;1.00;;
50543;SDS011;41176;44.032;20.900;2022-11-21T14:20:48;2.03;;;1.70;;
50543;SDS011;41176;44.032;20.900;2022-11-21T14:23:21;2.70;;;1.35;;
50543;SDS011;41176;44.032;20.900;2022-11-21T14:25:56;3.72;;;1.67;;
50543;SDS011;41176;44.032;20.900;2022-11-21T14:28:27;2.40;;;1.30;;
50543;SDS011;41176;44.032;20.900;2022-11-21T14:30:58;4.47;;;2.03;;
50543;SDS011;41176;44.032;20.900;2022-11-21T14:33:35;2.17;;;1.60;;
50543;SDS011;41176;44.032;20.900;2022-11-21T14:46:22;1.85;;;1.60;;
50543;SDS011;41176;44.032;20.900;2022-11-21T14:48:50;1.90;;;1.38;;
50543;SDS011;41176;44.032;20.900;2022-11-21T14:51:18;5.45;;;2.10;;
50543;SDS011;41176;44.032;20.900;2022-11-21T14:53:46;4.10;;;1.63;;
50543;SDS011;41176;44.032;20.900;2022-11-21T14:56:27;5.82;;;2.58;;
50543;SDS011;41176;44.032;20.900;2022-11-21T14:58:57;3.05;;;1.35;;
50543;SDS011;41176;44.032;20.900;2022-11-21T15:01:29;2.33;;;1.67;;
50543;SDS011;41176;44.032;20.900;2022-11-21T15:04:04;2.67;;;1.58;;
50543;SDS011;41176;44.032;20.900;2022-11-21T15:06:42;3.40;;;2.08;;
50543;SDS011;41176;44.032;20.900;2022-11-21T15:09:12;6.80;;;1.75;;
50543;SDS011;41176;44.032;20.900;2022-11-21T15:17:17;5.43;;;2.88;;
50543;SDS011;41176;44.032;20.900;2022-11-21T15:19:50;4.85;;;3.05;;
50543;SDS011;41176;44.032;20.900;2022-11-21T15:22:43;5.53;;;3.50;;
50543;SDS011;41176;44.032;20.900;2022-11-21T15:27:48;5.35;;;2.65;;
50543;SDS011;41176;44.032;20.900;2022-11-21T15:30:21;3.85;;;3.10;;
50543;SDS011;41176;44.032;20.900;2022-11-21T15:33:15;7.38;;;4.43;;
50543;SDS011;41176;44.032;20.900;2022-11-21T15:35:50;7.80;;;4.57;;
50543;SDS011;41176;44.032;20.900;2022-11-21T15:43:40;9.80;;;4.57;;
50543;SDS011;41176;44.032;20.900;2022-11-21T15:46:24;4.90;;;3.00;;
50543;SDS011;41176;44.032;20.900;2022-11-21T15:48:55;4.68;;;2.75;;
50543;SDS011;41176;44.032;20.900;2022-11-21T15:51:24;4.05;;;2.65;;
50543;SDS011;41176;44.032;20.900;2022-11-21T15:53:54;5.38;;;2.38;;
50543;SDS011;41176;44.032;20.900;2022-11-21T15:56:20;4.38;;;2.08;;
50543;SDS011;41176;44.032;20.900;2022-11-21T15:58:48;6.13;;;3.42;;
50543;SDS011;41176;44.032;20.900;2022-11-21T16:01:21;4.43;;;2.53;;
50543;SDS011;41176;44.032;20.900;2022-11-21T16:03:58;12.27;;;4.55;;
50543;SDS011;41176;44.032;20.900;2022-11-21T16:06:25;7.28;;;5.15;;
50543;SDS011;41176;44.032;20.900;2022-11-21T16:08:55;7.43;;;4.63;;
50543;SDS011;41176;44.032;20.900;2022-11-21T16:11:29;9.80;;;6.53;;
50543;SDS011;41176;44.032;20.900;2022-11-21T16:14:04;13.13;;;5.28;;
50543;SDS011;41176;44.032;20.900;2022-11-21T16:16:32;10.48;;;5.90;;
50543;SDS011;41176;44.032;20.900;2022-11-21T16:19:02;13.07;;;7.03;;
50543;SDS011;41176;44.032;20.900;2022-11-21T16:21:31;8.13;;;6.07;;
50543;SDS011;41176;44.032;20.900;2022-11-21T16:24:03;7.03;;;5.20;;
50543;SDS011;41176;44.032;20.900;2022-11-21T16:26:33;7.00;;;4.28;;
50543;SDS011;41176;44.032;20.900;2022-11-21T16:29:00;11.35;;;5.63;;
50543;SDS011;41176;44.032;20.900;2022-11-21T16:31:30;5.80;;;4.18;;
50543;SDS011;41176;44.032;20.900;2022-11-21T16:33:56;6.50;;;4.25;;
50543;SDS011;41176;44.032;20.900;2022-11-21T16:36:27;7.20;;;3.13;;
50543;SDS011;41176;44.032;20.900;2022-11-21T16:38:54;5.32;;;2.92;;
50543;SDS011;41176;44.032;20.900;2022-11-21T16:41:26;3.17;;;2.45;;
50543;SDS011;41176;44.032;20.900;2022-11-21T16:43:53;2.88;;;1.83;;
50543;SDS011;41176;44.032;20.900;2022-11-21T16:46:21;3.53;;;1.92;;
50543;SDS011;41176;44.032;20.900;2022-11-21T16:48:49;3.38;;;2.63;;
50543;SDS011;41176;44.032;20.900;2022-11-21T16:51:24;2.50;;;2.13;;
50543;SDS011;41176;44.032;20.900;2022-11-21T16:53:50;5.60;;;2.63;;
50543;SDS011;41176;44.032;20.900;2022-11-21T16:56:16;10.07;;;3.22;;
50543;SDS011;41176;44.032;20.900;2022-11-21T16:58:42;6.72;;;3.35;;
50543;SDS011;41176;44.032;20.900;2022-11-21T17:01:12;10.38;;;3.50;;
50543;SDS011;41176;44.032;20.900;2022-11-21T17:03:52;6.13;;;3.42;;
50543;SDS011;41176;44.032;20.900;2022-11-21T17:06:24;2.75;;;1.85;;
50543;SDS011;41176;44.032;20.900;2022-11-21T17:08:54;6.35;;;2.55;;
50543;SDS011;41176;44.032;20.900;2022-11-21T17:11:24;6.07;;;2.25;;
50543;SDS011;41176;44.032;20.900;2022-11-21T17:13:52;4.25;;;2.40;;
50543;SDS011;41176;44.032;20.900;2022-11-21T17:16:19;5.85;;;3.40;;
50543;SDS011;41176;44.032;20.900;2022-11-21T17:18:46;6.40;;;3.40;;
50543;SDS011;41176;44.032;20.900;2022-11-21T17:21:17;5.65;;;3.28;;
50543;SDS011;41176;44.032;20.900;2022-11-21T17:23:43;12.10;;;5.78;;
50543;SDS011;41176;44.032;20.900;2022-11-21T17:26:11;4.60;;;2.88;;
50543;SDS011;41176;44.032;20.900;2022-11-21T17:28:39;2.72;;;2.30;;
50543;SDS011;41176;44.032;20.900;2022-11-21T17:31:05;3.42;;;2.22;;
50543;SDS011;41176;44.032;20.900;2022-11-21T17:33:32;4.20;;;2.88;;
50543;SDS011;41176;44.032;20.900;2022-11-21T17:36:00;3.17;;;1.73;;
50543;SDS011;41176;44.032;20.900;2022-11-21T17:38:28;6.22;;;3.53;;
50543;SDS011;41176;44.032;20.900;2022-11-21T17:40:58;4.32;;;2.80;;
50543;SDS011;41176;44.032;20.900;2022-11-21T17:43:27;8.83;;;4.50;;
50543;SDS011;41176;44.032;20.900;2022-11-21T17:46:01;6.82;;;3.38;;
50543;SDS011;41176;44.032;20.900;2022-11-21T17:48:28;5.00;;;2.67;;
50543;SDS011;41176;44.032;20.900;2022-11-21T17:51:00;4.43;;;1.70;;
50543;SDS011;41176;44.032;20.900;2022-11-21T17:53:37;2.60;;;1.45;;
50543;SDS011;41176;44.032;20.900;2022-11-21T17:56:06;3.70;;;2.33;;
50543;SDS011;41176;44.032;20.900;2022-11-21T17:58:36;9.18;;;3.53;;
50543;SDS011;41176;44.032;20.900;2022-11-21T18:01:06;2.90;;;1.80;;
50543;SDS011;41176;44.032;20.900;2022-11-21T18:03:46;4.63;;;2.53;;
50543;SDS011;41176;44.032;20.900;2022-11-21T18:06:13;6.70;;;3.55;;
50543;SDS011;41176;44.032;20.900;2022-11-21T18:08:42;6.10;;;3.75;;
50543;SDS011;41176;44.032;20.900;2022-11-21T18:11:09;14.82;;;5.32;;
50543;SDS011;41176;44.032;20.900;2022-11-21T18:13:37;8.27;;;3.33;;
50543;SDS011;41176;44.032;20.900;2022-11-21T18:16:05;4.10;;;2.65;;
50543;SDS011;41176;44.032;20.900;2022-11-21T18:18:33;3.33;;;2.42;;
50543;SDS011;41176;44.032;20.900;2022-11-21T18:21:00;8.85;;;1.63;;
50543;SDS011;41176;44.032;20.900;2022-11-21T18:26:28;3.33;;;2.10;;
50543;SDS011;41176;44.032;20.900;2022-11-21T18:28:56;7.53;;;4.43;;
50543;SDS011;41176;44.032;20.900;2022-11-21T18:31:25;4.65;;;3.13;;
50543;SDS011;41176;44.032;20.900;2022-11-21T18:33:56;4.40;;;3.10;;
50543;SDS011;41176;44.032;20.900;2022-11-21T18:36:24;7.43;;;3.05;;
50543;SDS011;41176;44.032;20.900;2022-11-21T18:39:00;7.82;;;4.30;;
50543;SDS011;41176;44.032;20.900;2022-11-21T18:41:30;8.07;;;4.70;;
50543;SDS011;41176;44.032;20.900;2022-11-21T18:44:01;5.70;;;3.90;;
50543;SDS011;41176;44.032;20.900;2022-11-21T18:46:30;9.43;;;5.57;;
50543;SDS011;41176;44.032;20.900;2022-11-21T18:49:01;18.42;;;6.60;;
50543;SDS011;41176;44.032;20.900;2022-11-21T18:51:28;8.73;;;3.90;;
50543;SDS011;41176;44.032;20.900;2022-11-21T18:54:00;7.00;;;5.30;;
50543;SDS011;41176;44.032;20.900;2022-11-21T18:56:35;4.45;;;3.85;;
50543;SDS011;41176;44.032;20.900;2022-11-21T18:59:08;10.30;;;6.55;;
50543;SDS011;41176;44.032;20.900;2022-11-21T19:01:34;11.82;;;6.18;;
50543;SDS011;41176;44.032;20.900;2022-11-21T19:04:03;9.32;;;4.82;;
50543;SDS011;41176;44.032;20.900;2022-11-21T19:06:33;5.88;;;3.50;;
50543;SDS011;41176;44.032;20.900;2022-11-21T19:08:58;6.10;;;4.68;;
50543;SDS011;41176;44.032;20.900;2022-11-21T19:11:25;7.93;;;5.20;;
50543;SDS011;41176;44.032;20.900;2022-11-21T19:13:53;6.32;;;4.30;;
50543;SDS011;41176;44.032;20.900;2022-11-21T19:16:20;7.55;;;3.33;;
50543;SDS011;41176;44.032;20.900;2022-11-21T19:18:48;6.00;;;2.13;;
50543;SDS011;41176;44.032;20.900;2022-11-21T19:21:14;3.70;;;2.45;;
50543;SDS011;41176;44.032;20.900;2022-11-21T19:23:41;3.28;;;2.15;;
50543;SDS011;41176;44.032;20.900;2022-11-21T19:26:12;6.30;;;2.60;;
50543;SDS011;41176;44.032;20.900;2022-11-21T19:28:40;5.88;;;3.65;;
50543;SDS011;41176;44.032;20.900;2022-11-21T19:31:07;2.30;;;1.67;;
50543;SDS011;41176;44.032;20.900;2022-11-21T19:33:35;10.90;;;3.67;;
50543;SDS011;41176;44.032;20.900;2022-11-21T19:36:02;7.82;;;4.15;;
50543;SDS011;41176;44.032;20.900;2022-11-21T19:38:30;6.05;;;3.10;;
50543;SDS011;41176;44.032;20.900;2022-11-21T19:41:00;2.95;;;2.70;;
50543;SDS011;41176;44.032;20.900;2022-11-21T19:43:39;3.83;;;3.00;;
50543;SDS011;41176;44.032;20.900;2022-11-21T19:46:05;3.42;;;2.63;;
50543;SDS011;41176;44.032;20.900;2022-11-21T19:48:31;3.72;;;2.85;;
50543;SDS011;41176;44.032;20.900;2022-11-21T19:50:57;3.45;;;3.08;;
50543;SDS011;41176;44.032;20.900;2022-11-21T19:53:26;7.40;;;4.72;;
50543;SDS011;41176;44.032;20.900;2022-11-21T19:55:56;5.65;;;4.22;;
50543;SDS011;41176;44.032;20.900;2022-11-21T19:58:25;4.20;;;3.40;;
50543;SDS011;41176;44.032;20.900;2022-11-21T20:00:51;6.18;;;4.28;;
50543;SDS011;41176;44.032;20.900;2022-11-21T20:03:17;3.70;;;1.42;;
50543;SDS011;41176;44.032;20.900;2022-11-21T20:05:43;5.35;;;2.50;;
50543;SDS011;41176;44.032;20.900;2022-11-21T20:08:10;3.20;;;2.80;;
50543;SDS011;41176;44.032;20.900;2022-11-21T20:10:36;3.88;;;2.47;;
50543;SDS011;41176;44.032;20.900;2022-11-21T20:13:02;4.93;;;3.35;;
50543;SDS011;41176;44.032;20.900;2022-11-21T20:15:28;4.28;;;2.92;;
50543;SDS011;41176;44.032;20.900;2022-11-21T20:17:54;1.88;;;1.70;;
50543;SDS011;41176;44.032;20.900;2022-11-21T20:20:20;3.38;;;1.58;;
50543;SDS011;41176;44.032;20.900;2022-11-21T20:22:45;4.97;;;3.65;;
50543;SDS011;41176;44.032;20.900;2022-11-21T20:25:11;2.30;;;1.67;;
50543;SDS011;41176;44.032;20.900;2022-11-21T20:27:37;4.43;;;3.20;;
50543;SDS011;41176;44.032;20.900;2022-11-21T20:30:03;3.63;;;2.97;;
50543;SDS011;41176;44.032;20.900;2022-11-21T20:32:34;6.60;;;2.30;;
50543;SDS011;41176;44.032;20.900;2022-11-21T20:35:00;3.60;;;2.28;;
50543;SDS011;41176;44.032;20.900;2022-11-21T20:37:26;5.22;;;2.45;;
50543;SDS011;41176;44.032;20.900;2022-11-21T20:39:52;4.15;;;3.13;;
50543;SDS011;41176;44.032;20.900;2022-11-21T20:42:18;4.13;;;2.88;;
50543;SDS011;41176;44.032;20.900;2022-11-21T20:44:43;4.03;;;1.92;;
50543;SDS011;41176;44.032;20.900;2022-11-21T20:47:11;3.15;;;1.92;;
50543;SDS011;41176;44.032;20.900;2022-11-21T20:49:36;1.52;;;0.98;;
50543;SDS011;41176;44.032;20.900;2022-11-21T20:52:03;2.28;;;1.70;;
50543;SDS011;41176;44.032;20.900;2022-11-21T20:54:30;2.35;;;1.75;;
50543;SDS011;41176;44.032;20.900;2022-11-21T20:56:55;3.65;;;2.38;;
50543;SDS011;41176;44.032;20.900;2022-11-21T20:59:21;3.72;;;1.75;;
50543;SDS011;41176;44.032;20.900;2022-11-21T21:01:47;2.88;;;0.80;;
50543;SDS011;41176;44.032;20.900;2022-11-21T21:04:13;5.40;;;2.50;;
50543;SDS011;41176;44.032;20.900;2022-11-21T21:06:40;4.05;;;2.22;;
50543;SDS011;41176;44.032;20.900;2022-11-21T21:09:08;2.85;;;2.00;;
50543;SDS011;41176;44.032;20.900;2022-11-21T21:11:34;5.50;;;2.67;;
50543;SDS011;41176;44.032;20.900;2022-11-21T21:14:01;2.53;;;1.42;;
50543;SDS011;41176;44.032;20.900;2022-11-21T21:16:27;3.22;;;2.22;;
50543;SDS011;41176;44.032;20.900;2022-11-21T21:18:58;2.70;;;1.70;;
50543;SDS011;41176;44.032;20.900;2022-11-21T21:21:25;5.63;;;3.55;;
50543;SDS011;41176;44.032;20.900;2022-11-21T21:23:55;3.83;;;1.58;;
50543;SDS011;41176;44.032;20.900;2022-11-21T21:26:28;2.65;;;1.60;;
50543;SDS011;41176;44.032;20.900;2022-11-21T21:31:27;3.83;;;3.45;;
50543;SDS011;41176;44.032;20.900;2022-11-21T21:33:54;4.50;;;3.60;;
50543;SDS011;41176;44.032;20.900;2022-11-21T21:36:21;4.50;;;2.17;;
50543;SDS011;41176;44.032;20.900;2022-11-21T21:38:52;7.45;;;3.78;;
50543;SDS011;41176;44.032;20.900;2022-11-21T21:41:20;2.45;;;1.85;;
50543;SDS011;41176;44.032;20.900;2022-11-21T21:43:50;2.08;;;1.63;;
50543;SDS011;41176;44.032;20.900;2022-11-21T21:46:18;5.85;;;3.10;;
50543;SDS011;41176;44.032;20.900;2022-11-21T21:48:46;3.40;;;2.40;;
50543;SDS011;41176;44.032;20.900;2022-11-21T21:51:18;2.60;;;2.40;;
50543;SDS011;41176;44.032;20.900;2022-11-21T21:53:47;6.88;;;2.92;;
50543;SDS011;41176;44.032;20.900;2022-11-21T21:56:16;2.20;;;1.73;;
50543;SDS011;41176;44.032;20.900;2022-11-21T21:58:44;6.20;;;4.07;;
50543;SDS011;41176;44.032;20.900;2022-11-21T22:01:12;3.50;;;2.13;;
50543;SDS011;41176;44.032;20.900;2022-11-21T22:03:56;5.72;;;2.63;;
50543;SDS011;41176;44.032;20.900;2022-11-21T22:06:23;6.82;;;2.65;;
50543;SDS011;41176;44.032;20.900;2022-11-21T22:08:55;6.15;;;2.85;;
50543;SDS011;41176;44.032;20.900;2022-11-21T22:11:26;4.85;;;3.60;;
50543;SDS011;41176;44.032;20.900;2022-11-21T22:14:02;3.28;;;2.13;;
50543;SDS011;41176;44.032;20.900;2022-11-21T22:16:31;3.55;;;2.90;;
50543;SDS011;41176;44.032;20.900;2022-11-21T22:18:57;3.17;;;2.42;;
50543;SDS011;41176;44.032;20.900;2022-11-21T22:21:30;5.95;;;4.18;;
50543;SDS011;41176;44.032;20.900;2022-11-21T22:23:59;5.85;;;3.72;;
50543;SDS011;41176;44.032;20.900;2022-11-21T22:26:28;5.28;;;3.08;;
50543;SDS011;41176;44.032;20.900;2022-11-21T22:28:54;9.40;;;5.03;;
50543;SDS011;41176;44.032;20.900;2022-11-21T22:31:21;10.65;;;5.68;;
50543;SDS011;41176;44.032;20.900;2022-11-21T22:33:47;7.63;;;4.45;;
50543;SDS011;41176;44.032;20.900;2022-11-21T22:36:13;7.28;;;4.03;;
50543;SDS011;41176;44.032;20.900;2022-11-21T22:38:43;4.75;;;2.72;;
50543;SDS011;41176;44.032;20.900;2022-11-21T22:41:13;6.50;;;4.55;;
50543;SDS011;41176;44.032;20.900;2022-11-21T22:43:43;5.28;;;3.22;;
50543;SDS011;41176;44.032;20.900;2022-11-21T22:46:13;3.05;;;2.72;;
50543;SDS011;41176;44.032;20.900;2022-11-21T22:48:39;7.32;;;3.88;;
50543;SDS011;41176;44.032;20.900;2022-11-21T22:51:05;3.22;;;2.40;;
50543;SDS011;41176;44.032;20.900;2022-11-21T22:53:31;4.55;;;3.70;;
50543;SDS011;41176;44.032;20.900;2022-11-21T22:56:00;4.57;;;2.55;;
50543;SDS011;41176;44.032;20.900;2022-11-21T22:58:31;3.85;;;2.50;;
50543;SDS011;41176;44.032;20.900;2022-11-21T23:01:02;1.92;;;1.50;;
50543;SDS011;41176;44.032;20.900;2022-11-21T23:03:32;1.88;;;1.65;;
50543;SDS011;41176;44.032;20.900;2022-11-21T23:05:59;5.15;;;3.13;;
50543;SDS011;41176;44.032;20.900;2022-11-21T23:08:34;4.43;;;3.30;;
50543;SDS011;41176;44.032;20.900;2022-11-21T23:11:14;5.97;;;3.97;;
50543;SDS011;41176;44.032;20.900;2022-11-21T23:13:46;5.13;;;3.97;;
50543;SDS011;41176;44.032;20.900;2022-11-21T23:16:12;7.65;;;4.30;;
50543;SDS011;41176;44.032;20.900;2022-11-21T23:18:39;6.85;;;4.93;;
50543;SDS011;41176;44.032;20.900;2022-11-21T23:21:05;7.38;;;4.65;;
50543;SDS011;41176;44.032;20.900;2022-11-21T23:23:33;8.80;;;4.30;;
50543;SDS011;41176;44.032;20.900;2022-11-21T23:25:59;13.35;;;4.47;;
50543;SDS011;41176;44.032;20.900;2022-11-21T23:28:25;9.57;;;4.18;;
50543;SDS011;41176;44.032;20.900;2022-11-21T23:30:51;2.70;;;1.88;;
50543;SDS011;41176;44.032;20.900;2022-11-21T23:33:17;3.15;;;2.17;;
50543;SDS011;41176;44.032;20.900;2022-11-21T23:35:43;9.90;;;2.53;;
50543;SDS011;41176;44.032;20.900;2022-11-21T23:38:10;2.80;;;1.45;;
50543;SDS011;41176;44.032;20.900;2022-11-21T23:40:36;4.97;;;2.20;;
50543;SDS011;41176;44.032;20.900;2022-11-21T23:43:02;3.88;;;2.33;;
50543;SDS011;41176;44.032;20.900;2022-11-21T23:45:28;6.72;;;2.78;;
50543;SDS011;41176;44.032;20.900;2022-11-21T23:47:53;2.75;;;2.20;;
50543;SDS011;41176;44.032;20.900;2022-11-21T23:50:19;2.30;;;1.77;;
50543;SDS011;41176;44.032;20.900;2022-11-21T23:52:45;1.92;;;1.42;;
50543;SDS011;41176;44.032;20.900;2022-11-21T23:55:12;2.20;;;1.77;;
50543;SDS011;41176;44.032;20.900;2022-11-21T23:57:38;2.05;;;1.75;;
